Time;durP1;ratioP1;P1;durP2;ratioP2;P2;SDS_P1;SDS_P2;PMS_P1;PMS_P2;Temp;Humidity;BMP_temperature;BMP_pressure;BME280_temperature;BME280_humidity;BME280_pressure;Samples;Min_cycle;Max_cycle;Signal;HPM_P1;HPM_P2
2023/08/28 00:01:49;;;;;;;6.53;4.88;;;;;;;12.03;100.00;101093.28;5010577;28;20048;-71
2023/08/28 00:04:14;;;;;;;8.40;4.93;;;;;;;12.00;100.00;101093.50;5009019;28;20037;-71
2023/08/28 00:06:39;;;;;;;9.15;4.60;;;;;;;11.97;100.00;101091.00;5010773;28;20041;-71
2023/08/28 00:09:05;;;;;;;7.38;4.85;;;;;;;11.96;100.00;101083.81;5009574;28;20490;-70
2023/08/28 00:11:30;;;;;;;7.43;5.05;;;;;;;11.93;100.00;101084.88;5010884;28;20038;-71
2023/08/28 00:13:55;;;;;;;6.82;4.55;;;;;;;11.92;100.00;101080.44;5010476;28;20029;-71
2023/08/28 00:16:21;;;;;;;7.30;5.13;;;;;;;11.93;100.00;101081.28;5011062;28;20037;-70
2023/08/28 00:18:46;;;;;;;6.60;4.63;;;;;;;11.91;100.00;101081.41;5009426;28;20497;-71
2023/08/28 00:21:11;;;;;;;5.97;4.88;;;;;;;11.89;100.00;101087.97;5010883;28;20523;-71
2023/08/28 00:23:39;;;;;;;10.13;5.00;;;;;;;11.89;100.00;101086.13;5009561;28;20017;-71
2023/08/28 00:26:04;;;;;;;6.88;4.60;;;;;;;11.87;100.00;101082.63;5009351;28;20042;-71
2023/08/28 00:28:30;;;;;;;7.22;5.28;;;;;;;11.87;100.00;101076.31;5010131;28;20410;-71
2023/08/28 00:30:55;;;;;;;7.28;4.88;;;;;;;11.87;100.00;101074.44;5019951;28;20029;-70
2023/08/28 00:33:20;;;;;;;5.95;4.78;;;;;;;11.86;100.00;101074.56;5014121;28;20044;-70
2023/08/28 00:35:46;;;;;;;5.18;4.38;;;;;;;11.82;100.00;101071.19;5028210;28;20068;-70
2023/08/28 00:38:12;;;;;;;6.13;4.45;;;;;;;11.79;100.00;101068.66;5009213;28;20041;-70
2023/08/28 00:40:41;;;;;;;5.45;4.47;;;;;;;11.79;100.00;101065.06;5008704;28;20419;-70
2023/08/28 00:43:08;;;;;;;5.85;4.50;;;;;;;11.77;100.00;101072.50;5008544;28;20045;-70
2023/08/28 00:45:39;;;;;;;6.30;4.70;;;;;;;11.79;100.00;101067.78;5019894;28;20028;-70
2023/08/28 00:48:06;;;;;;;5.95;5.35;;;;;;;11.79;100.00;101068.66;5023660;28;20068;-71
2023/08/28 00:50:32;;;;;;;7.30;4.63;;;;;;;11.73;100.00;101053.63;5008604;28;20123;-71
2023/08/28 00:53:01;;;;;;;6.85;4.68;;;;;;;11.71;100.00;101052.88;5012018;28;20084;-71
2023/08/28 00:55:29;;;;;;;6.53;4.70;;;;;;;11.72;100.00;101053.75;5011934;28;20033;-71
2023/08/28 00:57:55;;;;;;;5.13;4.63;;;;;;;11.69;100.00;101057.56;5027074;28;20122;-70
2023/08/28 01:00:20;;;;;;;5.82;4.13;;;;;;;11.69;100.00;101059.41;5009713;28;20105;-70
2023/08/28 01:02:46;;;;;;;7.82;4.78;;;;;;;11.69;100.00;101060.28;5007439;28;20530;-70
2023/08/28 01:05:11;;;;;;;6.53;5.03;;;;;;;11.67;100.00;101061.41;5028980;28;20040;-71
2023/08/28 01:07:44;;;;;;;7.70;4.90;;;;;;;11.67;100.00;101055.97;5020820;28;20048;-71
2023/08/28 01:10:21;;;;;;;;;;;;;;;11.69;100.00;101052.13;5008494;28;20041;-71
2023/08/28 01:12:59;;;;;;;6.43;4.60;;;;;;;11.67;100.00;101054.09;5045221;28;19917;-71
2023/08/28 01:15:26;;;;;;;9.82;5.45;;;;;;;11.65;100.00;101053.31;5016502;28;20034;-71
2023/08/28 01:17:57;;;;;;;6.45;4.50;;;;;;;11.61;100.00;101059.09;5008511;28;20025;-71
2023/08/28 01:20:24;;;;;;;6.50;4.53;;;;;;;11.59;100.00;101061.09;5007838;28;20030;-71
2023/08/28 01:23:04;;;;;;;5.35;4.30;;;;;;;11.58;100.00;101057.50;5025532;28;20509;-71
2023/08/28 01:25:31;;;;;;;7.72;4.93;;;;;;;11.55;100.00;101062.28;5029433;28;20060;-71
2023/08/28 01:27:58;;;;;;;8.13;5.53;;;;;;;11.54;100.00;101058.69;5017473;28;20037;-70
2023/08/28 01:30:23;;;;;;;9.38;5.60;;;;;;;11.55;100.00;101049.53;5008488;28;20045;-71
2023/08/28 01:32:49;;;;;;;7.45;4.55;;;;;;;11.54;100.00;101050.53;5008757;28;20048;-71
2023/08/28 01:35:26;;;;;;;6.60;4.90;;;;;;;11.53;100.00;101042.47;5007461;28;20032;-71
2023/08/28 01:38:19;;;;;;;11.27;5.55;;;;;;;11.52;100.00;101055.22;5007418;28;20104;-71
2023/08/28 01:41:07;;;;;;;10.23;5.35;;;;;;;11.50;100.00;101049.00;5009018;28;20040;-71
2023/08/28 01:43:39;;;;;;;6.25;5.45;;;;;;;11.45;100.00;101043.91;5007397;28;20044;-70
2023/08/28 01:46:05;;;;;;;8.27;5.15;;;;;;;11.43;100.00;101050.44;5007192;28;20033;-70
2023/08/28 01:48:37;;;;;;;8.27;6.70;;;;;;;11.41;100.00;101031.47;5006237;28;20037;-71
2023/08/28 01:51:02;;;;;;;8.65;6.20;;;;;;;11.41;100.00;101030.59;5008748;28;20500;-71
2023/08/28 01:53:28;;;;;;;7.85;5.78;;;;;;;11.38;100.00;101026.28;5007497;28;20034;-70
2023/08/28 01:56:08;;;;;;;8.35;5.88;;;;;;;11.40;100.00;101031.59;5021601;28;20179;-71
2023/08/28 01:58:37;;;;;;;10.93;6.05;;;;;;;11.37;100.00;101038.13;5026922;28;20033;-71
2023/08/28 02:01:02;;;;;;;8.13;5.53;;;;;;;11.37;100.00;101032.66;5022236;28;20401;-71
2023/08/28 02:03:30;;;;;;;7.22;6.03;;;;;;;11.35;100.00;101041.97;5008898;28;20121;-71
2023/08/28 02:05:55;;;;;;;10.15;5.80;;;;;;;11.31;100.00;101035.00;5023212;28;20038;-71
2023/08/28 02:08:20;;;;;;;8.65;6.05;;;;;;;11.28;100.00;101025.16;5018902;28;20033;-71
2023/08/28 02:10:46;;;;;;;7.53;5.22;;;;;;;11.29;100.00;101028.78;5007182;28;20037;-71
2023/08/28 02:13:11;;;;;;;6.28;5.57;;;;;;;11.24;100.00;101016.38;5023299;28;20029;-71
2023/08/28 02:15:37;;;;;;;6.35;4.93;;;;;;;11.19;100.00;101012.22;4997378;28;20091;-71
2023/08/28 02:18:02;;;;;;;8.25;5.68;;;;;;;11.15;100.00;101011.59;5007931;28;20393;-71
2023/08/28 02:20:28;;;;;;;6.43;4.97;;;;;;;11.12;100.00;101014.53;5026695;28;20033;-71
2023/08/28 02:22:53;;;;;;;10.60;6.00;;;;;;;11.11;100.00;101023.69;4991472;28;20401;-71
2023/08/28 02:25:20;;;;;;;7.22;5.68;;;;;;;11.10;100.00;101027.41;5024177;28;20033;-71
2023/08/28 02:27:46;;;;;;;8.45;5.63;;;;;;;11.09;100.00;101025.63;5010821;28;20030;-71
2023/08/28 02:30:12;;;;;;;7.82;5.63;;;;;;;11.10;100.00;101032.84;4995121;28;20379;-71
2023/08/28 02:32:37;;;;;;;8.73;5.95;;;;;;;11.07;100.00;101035.78;5024577;28;20378;-71
2023/08/28 02:35:03;;;;;;;7.57;5.40;;;;;;;11.07;100.00;101040.34;5007386;28;20464;-71
2023/08/28 02:37:29;;;;;;;8.20;5.40;;;;;;;11.05;100.00;101035.03;5008100;28;20048;-71
2023/08/28 02:39:54;;;;;;;9.15;6.43;;;;;;;11.05;100.00;101031.41;5008197;28;20037;-71
2023/08/28 02:42:20;;;;;;;9.57;6.25;;;;;;;11.03;100.00;101019.78;5023737;28;20041;-71
2023/08/28 02:44:45;;;;;;;8.80;6.45;;;;;;;11.01;100.00;101030.78;5008393;28;20113;-72
2023/08/28 02:47:10;;;;;;;8.00;5.85;;;;;;;11.00;100.00;101031.72;5005719;28;20025;-72
2023/08/28 02:49:36;;;;;;;7.97;6.10;;;;;;;10.97;100.00;101029.25;5006431;28;20044;-72
2023/08/28 02:52:01;;;;;;;13.68;6.40;;;;;;;10.94;100.00;101030.31;5008181;28;20037;-71
2023/08/28 02:54:26;;;;;;;8.60;6.18;;;;;;;10.93;100.00;101035.88;5008307;28;20060;-71
2023/08/28 02:56:52;;;;;;;8.45;5.97;;;;;;;10.92;100.00;101036.88;5006722;28;20395;-71
2023/08/28 02:59:18;;;;;;;15.63;7.38;;;;;;;10.92;100.00;101039.59;5006732;28;20088;-72
2023/08/28 03:01:43;;;;;;;11.98;6.70;;;;;;;10.86;100.00;101035.44;5005909;28;20137;-71
2023/08/28 03:04:08;;;;;;;8.18;6.25;;;;;;;10.80;100.00;101038.59;5007111;28;20050;-71
2023/08/28 03:06:37;;;;;;;11.38;7.35;;;;;;;10.85;100.00;101041.00;5006609;28;20562;-71
2023/08/28 03:09:04;;;;;;;6.47;5.80;;;;;;;10.77;100.00;101038.84;5006791;28;20366;-71
2023/08/28 03:11:29;;;;;;;7.25;5.32;;;;;;;10.74;100.00;101049.91;5007794;28;20034;-72
2023/08/28 03:13:55;;;;;;;8.52;6.25;;;;;;;10.73;100.00;101046.34;5007485;28;20383;-72
2023/08/28 03:16:20;;;;;;;8.35;6.28;;;;;;;10.76;100.00;101057.97;5026890;28;20029;-72
2023/08/28 03:18:46;;;;;;;9.57;6.75;;;;;;;10.76;100.00;101064.28;5017659;28;20038;-71
2023/08/28 03:21:11;;;;;;;10.32;6.40;;;;;;;10.75;100.00;101062.53;5027334;28;20036;-72
2023/08/28 03:23:37;;;;;;;12.50;6.05;;;;;;;10.76;100.00;101066.13;5026784;28;20038;-72
2023/08/28 03:26:02;;;;;;;9.05;6.65;;;;;;;10.73;100.00;101059.94;5027007;28;20026;-71
2023/08/28 03:28:28;;;;;;;9.85;6.30;;;;;;;10.75;100.00;101061.69;5019836;28;20113;-72
2023/08/28 03:30:57;;;;;;;7.43;6.05;;;;;;;10.72;100.00;101055.47;5024559;28;20032;-72
2023/08/28 03:33:24;;;;;;;9.07;6.50;;;;;;;10.72;100.00;101058.22;5024891;28;20561;-71
2023/08/28 03:35:49;;;;;;;8.77;6.80;;;;;;;10.70;100.00;101062.88;5012164;28;20449;-72
2023/08/28 03:38:16;;;;;;;8.07;6.15;;;;;;;10.69;100.00;101066.56;5029198;28;20041;-71
2023/08/28 03:40:43;;;;;;;8.35;6.70;;;;;;;10.68;100.00;101066.69;5031304;28;20507;-71
2023/08/28 03:43:08;;;;;;;9.88;7.22;;;;;;;10.67;100.00;101070.34;5013219;28;20069;-71
2023/08/28 03:45:33;;;;;;;9.60;7.38;;;;;;;10.69;100.00;101076.59;5024969;28;20068;-72
2023/08/28 03:47:59;;;;;;;10.60;7.75;;;;;;;10.68;100.00;101077.56;5009129;28;20029;-72
2023/08/28 03:50:28;;;;;;;9.13;7.50;;;;;;;10.67;100.00;101078.53;4993509;28;20204;-72
2023/08/28 03:52:54;;;;;;;12.95;7.80;;;;;;;10.67;100.00;101079.38;5010185;28;20416;-72
2023/08/28 03:55:19;;;;;;;11.50;8.23;;;;;;;10.67;100.00;101078.53;5011788;28;20038;-72
2023/08/28 03:57:45;;;;;;;11.30;7.15;;;;;;;10.67;100.00;101076.66;5018837;28;20072;-72
2023/08/28 04:00:12;;;;;;;9.23;6.75;;;;;;;10.70;100.00;101087.34;5020302;28;20041;-72
2023/08/28 04:02:41;;;;;;;11.68;7.47;;;;;;;10.70;100.00;101100.97;5010742;28;20460;-72
2023/08/28 04:05:07;;;;;;;16.08;8.35;;;;;;;10.75;100.00;101097.91;5009739;28;20065;-72
2023/08/28 04:07:33;;;;;;;15.63;7.47;;;;;;;10.76;100.00;101101.50;5009637;28;20490;-72
2023/08/28 04:10:00;;;;;;;12.73;7.57;;;;;;;10.78;100.00;101105.00;5009492;28;20543;-72
2023/08/28 04:12:25;;;;;;;11.20;7.07;;;;;;;10.80;100.00;101105.75;5010721;28;20077;-72
2023/08/28 04:14:51;;;;;;;12.35;7.57;;;;;;;10.81;100.00;101104.78;4993399;28;20040;-72
2023/08/28 04:17:16;;;;;;;13.98;9.10;;;;;;;10.81;100.00;101099.34;5024884;28;20055;-72
2023/08/28 04:19:42;;;;;;;14.38;8.38;;;;;;;10.83;100.00;101095.53;5009001;28;20042;-72
2023/08/28 04:22:08;;;;;;;10.77;8.23;;;;;;;10.84;100.00;101101.84;5010687;28;20053;-72
2023/08/28 04:24:33;;;;;;;10.20;7.70;;;;;;;10.84;100.00;101104.56;5009447;28;20030;-72
2023/08/28 04:26:59;;;;;;;11.88;8.13;;;;;;;10.85;100.00;101101.75;5024987;28;20069;-72
2023/08/28 04:29:24;;;;;;;15.07;8.48;;;;;;;10.87;100.00;101107.97;5008645;28;20026;-72
2023/08/28 04:31:50;;;;;;;14.18;8.57;;;;;;;10.90;100.00;101106.88;5008976;28;20033;-72
2023/08/28 04:34:15;;;;;;;14.23;8.68;;;;;;;10.92;100.00;101103.06;5008712;28;20038;-72
2023/08/28 04:36:41;;;;;;;11.35;9.02;;;;;;;10.96;100.00;101104.59;5009116;28;20057;-72
2023/08/28 04:39:06;;;;;;;12.32;9.75;;;;;;;10.99;100.00;101112.53;5009450;28;20042;-72
2023/08/28 04:41:32;;;;;;;11.55;8.68;;;;;;;11.04;100.00;101116.78;5008693;28;20030;-72
2023/08/28 04:43:58;;;;;;;14.60;9.15;;;;;;;11.05;100.00;101108.53;5010608;28;20080;-72
2023/08/28 04:46:25;;;;;;;15.20;9.30;;;;;;;11.06;100.00;101109.41;5008880;28;20042;-72
2023/08/28 04:48:50;;;;;;;14.50;8.43;;;;;;;11.12;100.00;101103.53;5016634;28;20080;-72
2023/08/28 04:51:16;;;;;;;12.05;8.45;;;;;;;11.13;100.00;101100.69;5028903;28;20136;-72
2023/08/28 04:53:41;;;;;;;11.85;9.30;;;;;;;11.15;100.00;101095.13;5024334;28;20472;-72
2023/08/28 04:56:06;;;;;;;12.75;8.30;;;;;;;11.18;100.00;101089.47;5009128;28;20127;-72
2023/08/28 04:58:33;;;;;;;14.10;8.50;;;;;;;11.23;100.00;101087.28;4992529;28;20377;-72
2023/08/28 05:01:00;;;;;;;12.18;8.32;;;;;;;11.24;100.00;101091.75;5022260;28;20108;-72
2023/08/28 05:03:25;;;;;;;13.98;8.68;;;;;;;11.29;100.00;101088.72;5023586;28;20077;-72
2023/08/28 05:05:52;;;;;;;13.48;8.23;;;;;;;11.31;100.00;101087.59;5009072;28;20030;-72
2023/08/28 05:08:17;;;;;;;11.13;8.50;;;;;;;11.34;100.00;101086.53;5009629;28;20389;-72
2023/08/28 05:10:43;;;;;;;13.40;8.57;;;;;;;11.35;100.00;101078.25;5008891;28;20464;-72
2023/08/28 05:13:09;;;;;;;13.48;9.65;;;;;;;11.37;100.00;101078.13;5009610;28;20121;-72
2023/08/28 05:15:35;;;;;;;13.27;9.43;;;;;;;11.38;100.00;101079.88;5008177;28;20128;-72
2023/08/28 05:18:00;;;;;;;13.25;8.85;;;;;;;11.46;100.00;101091.06;5024557;28;20038;-72
2023/08/28 05:20:26;;;;;;;9.77;8.30;;;;;;;11.51;100.00;101080.72;5008197;28;20064;-72
2023/08/28 05:22:51;;;;;;;16.42;8.98;;;;;;;11.55;100.00;101086.81;5010009;28;20490;-72
2023/08/28 05:25:17;;;;;;;12.43;9.27;;;;;;;11.59;100.00;101086.47;5010281;28;20029;-72
2023/08/28 05:27:43;;;;;;;11.32;9.38;;;;;;;11.64;100.00;101072.53;5013981;28;20026;-73
2023/08/28 05:30:10;;;;;;;14.23;9.30;;;;;;;11.74;100.00;101074.44;5007936;28;20048;-73
2023/08/28 05:32:36;;;;;;;15.02;9.43;;;;;;;11.82;100.00;101079.38;5007647;28;20092;-72
2023/08/28 05:35:03;;;;;;;12.90;10.38;;;;;;;11.91;100.00;101077.84;5008040;28;20034;-72
2023/08/28 05:37:29;;;;;;;14.90;9.95;;;;;;;11.99;100.00;101083.59;5008857;28;20410;-73
2023/08/28 05:39:54;;;;;;;17.00;10.48;;;;;;;12.06;100.00;101075.81;5003336;28;20038;-73
2023/08/28 05:42:19;;;;;;;19.00;11.73;;;;;;;12.15;100.00;101078.72;5009577;28;20084;-72
2023/08/28 05:44:46;;;;;;;17.20;10.68;;;;;;;12.21;100.00;101080.09;5023711;28;20092;-72
2023/08/28 05:47:12;;;;;;;12.82;9.95;;;;;;;12.24;100.00;101072.56;5023947;28;20890;-73
2023/08/28 05:49:37;;;;;;;20.23;12.60;;;;;;;12.27;100.00;101070.59;5012010;28;20090;-72
2023/08/28 05:52:04;;;;;;;14.32;10.75;;;;;;;12.27;100.00;101068.75;5009295;28;20065;-73
2023/08/28 05:54:29;;;;;;;16.17;11.27;;;;;;;12.28;100.00;101078.66;5026124;28;20037;-72
2023/08/28 05:56:55;;;;;;;14.30;11.38;;;;;;;12.29;100.00;101080.41;5020687;28;20596;-72
2023/08/28 05:59:20;;;;;;;15.32;11.15;;;;;;;12.30;100.00;101090.31;5008994;28;20049;-72
2023/08/28 06:01:46;;;;;;;19.40;11.63;;;;;;;12.32;100.00;101082.91;5028356;28;20124;-72
2023/08/28 06:04:12;;;;;;;13.80;11.50;;;;;;;12.32;100.00;101079.31;5014832;28;20477;-73
2023/08/28 06:06:38;;;;;;;18.48;11.30;;;;;;;12.33;100.00;101081.03;5007482;28;20116;-73
2023/08/28 06:09:04;;;;;;;19.13;11.07;;;;;;;12.34;100.00;101075.47;5007618;28;20045;-73
2023/08/28 06:11:29;;;;;;;17.48;10.25;;;;;;;12.34;100.00;101078.19;5008904;28;20033;-73
2023/08/28 06:13:56;;;;;;;14.25;9.80;;;;;;;12.36;100.00;101083.53;5007174;28;20038;-72
2023/08/28 06:16:21;;;;;;;18.20;11.75;;;;;;;12.41;100.00;101076.75;5007567;28;20085;-72
2023/08/28 06:18:46;;;;;;;16.48;10.50;;;;;;;12.41;100.00;101063.09;5030253;28;20033;-73
2023/08/28 06:21:12;;;;;;;13.88;10.68;;;;;;;12.43;100.00;101072.03;5028161;28;20044;-73
2023/08/28 06:23:37;;;;;;;17.13;11.90;;;;;;;12.48;100.00;101077.13;5028404;28;20505;-72
2023/08/28 06:26:06;;;;;;;19.55;13.23;;;;;;;12.51;100.00;101085.09;5028317;28;20057;-73
2023/08/28 06:28:31;;;;;;;14.25;11.32;;;;;;;12.53;100.00;101091.28;5016160;28;20486;-73
2023/08/28 06:30:57;;;;;;;16.00;11.20;;;;;;;12.57;100.00;101081.00;5006438;28;20054;-73
2023/08/28 06:33:23;;;;;;;14.82;11.13;;;;;;;12.60;100.00;101092.56;5006185;28;20064;-73
2023/08/28 06:35:49;;;;;;;17.38;12.88;;;;;;;12.63;100.00;101086.00;5008835;28;20041;-73
2023/08/28 06:38:14;;;;;;;16.33;11.80;;;;;;;12.69;100.00;101086.41;5008276;28;20401;-72
2023/08/28 06:40:39;;;;;;;18.73;12.20;;;;;;;12.74;100.00;101084.19;5008296;28;20034;-73
2023/08/28 06:43:05;;;;;;;17.20;12.27;;;;;;;12.81;100.00;101092.75;5008228;28;20038;-72
2023/08/28 06:45:31;;;;;;;17.98;12.43;;;;;;;12.90;100.00;101102.09;5016949;28;20033;-72
2023/08/28 06:47:57;;;;;;;20.98;12.93;;;;;;;13.01;100.00;101094.81;5026126;28;20056;-72
2023/08/28 06:50:23;;;;;;;19.00;13.60;;;;;;;13.07;100.00;101096.19;5007575;28;20485;-72
2023/08/28 06:52:49;;;;;;;19.35;13.88;;;;;;;13.18;100.00;101096.19;5007099;28;20140;-72
2023/08/28 06:55:14;;;;;;;19.25;13.10;;;;;;;13.26;100.00;101104.69;5008288;28;20470;-73
2023/08/28 06:57:39;;;;;;;17.27;12.93;;;;;;;13.37;100.00;101106.56;5006691;28;20034;-72
2023/08/28 07:00:06;;;;;;;19.02;12.27;;;;;;;13.45;100.00;101108.69;5007789;28;20053;-72
2023/08/28 07:02:32;;;;;;;20.42;13.18;;;;;;;13.49;100.00;101111.06;5021803;28;20062;-72
2023/08/28 07:04:57;;;;;;;16.80;12.60;;;;;;;13.56;100.00;101118.75;5006498;28;20040;-72
2023/08/28 07:07:23;;;;;;;18.75;12.68;;;;;;;13.64;100.00;101122.59;5007937;28;20548;-73
2023/08/28 07:09:48;;;;;;;17.70;12.25;;;;;;;13.70;100.00;101126.69;5008678;28;20046;-73
2023/08/28 07:12:14;;;;;;;18.25;12.30;;;;;;;13.79;100.00;101129.56;5021122;28;20048;-73
2023/08/28 07:14:39;;;;;;;16.10;12.10;;;;;;;13.89;100.00;101123.34;5006121;28;20081;-73
2023/08/28 07:17:05;;;;;;;21.02;12.15;;;;;;;13.98;100.00;101126.19;5007371;28;20045;-73
2023/08/28 07:19:30;;;;;;;14.80;11.05;;;;;;;14.09;100.00;101118.97;5006860;28;20375;-73
2023/08/28 07:21:59;;;;;;;18.30;11.52;;;;;;;14.19;100.00;101117.22;5007801;28;20759;-73
2023/08/28 07:24:24;;;;;;;14.55;11.57;;;;;;;14.27;100.00;101118.31;5007952;28;20041;-72
2023/08/28 07:26:50;;;;;;;16.38;10.98;;;;;;;14.38;100.00;101128.34;5026897;28;20512;-73
2023/08/28 07:29:15;;;;;;;15.52;11.82;;;;;;;14.55;100.00;101124.25;5007544;28;20595;-72
2023/08/28 07:31:40;;;;;;;17.13;12.77;;;;;;;14.72;100.00;101125.53;5022842;28;20534;-73
2023/08/28 07:34:06;;;;;;;17.73;12.15;;;;;;;14.93;100.00;101117.34;5005062;28;20044;-73
2023/08/28 07:36:31;;;;;;;18.10;12.20;;;;;;;15.13;100.00;101116.47;5007596;28;20071;-73
2023/08/28 07:38:57;;;;;;;18.90;12.20;;;;;;;15.37;100.00;101112.56;5007641;28;20085;-73
2023/08/28 07:41:22;;;;;;;17.23;12.60;;;;;;;15.55;100.00;101108.19;5007556;28;20542;-73
2023/08/28 07:43:48;;;;;;;14.40;11.98;;;;;;;15.73;100.00;101116.69;5006517;28;20538;-72
2023/08/28 07:46:13;;;;;;;15.98;12.27;;;;;;;15.90;100.00;101113.31;5005682;28;20100;-73
2023/08/28 07:48:39;;;;;;;16.98;11.70;;;;;;;16.06;100.00;101113.63;5027321;28;20557;-73
2023/08/28 07:51:05;;;;;;;17.75;12.70;;;;;;;16.30;100.00;101110.50;5026941;28;20037;-73
2023/08/28 07:53:30;;;;;;;15.40;11.98;;;;;;;16.61;100.00;101101.31;5025844;28;20481;-72
2023/08/28 07:55:55;;;;;;;14.00;11.00;;;;;;;16.80;100.00;101106.81;5019620;28;20486;-73
2023/08/28 07:58:21;;;;;;;12.50;11.00;;;;;;;16.97;100.00;101117.09;5007706;28;20025;-73
2023/08/28 08:00:46;;;;;;;12.15;9.65;;;;;;;17.15;100.00;101110.81;5005558;28;20129;-73
2023/08/28 08:03:11;;;;;;;14.98;9.65;;;;;;;17.35;100.00;101107.03;5008126;28;20038;-72
2023/08/28 08:05:37;;;;;;;13.13;9.68;;;;;;;17.49;100.00;101113.97;5010697;28;20076;-72
2023/08/28 08:08:03;;;;;;;12.45;8.98;;;;;;;17.51;97.63;101123.78;5010655;28;20049;-72
2023/08/28 08:10:29;;;;;;;12.82;9.60;;;;;;;17.50;96.92;101122.03;5010888;28;20026;-72
2023/08/28 08:12:54;;;;;;;14.38;10.05;;;;;;;17.59;98.54;101120.28;5010908;28;20038;-72
2023/08/28 08:15:20;;;;;;;12.15;9.00;;;;;;;17.75;98.96;101122.41;5010625;28;20065;-72
2023/08/28 08:17:46;;;;;;;11.10;8.43;;;;;;;17.79;93.85;101115.59;5009779;28;20046;-72
2023/08/28 08:20:11;;;;;;;11.10;8.88;;;;;;;17.89;95.79;101123.81;5010364;28;20405;-72
2023/08/28 08:22:38;;;;;;;12.27;7.80;;;;;;;17.95;95.35;101113.09;5010515;28;20493;-72
2023/08/28 08:25:04;;;;;;;13.45;8.60;;;;;;;17.94;95.01;101119.59;5009334;28;20105;-72
2023/08/28 08:27:30;;;;;;;11.35;8.70;;;;;;;18.03;96.66;101113.16;5010849;28;20084;-72
2023/08/28 08:29:55;;;;;;;10.32;8.18;;;;;;;18.11;95.79;101112.41;5010544;28;20493;-72
2023/08/28 08:32:20;;;;;;;11.02;8.60;;;;;;;18.17;93.79;101116.44;5009717;28;20514;-72
2023/08/28 08:34:46;;;;;;;12.38;8.75;;;;;;;18.18;94.97;101119.00;5024767;28;20562;-72
2023/08/28 08:37:11;;;;;;;12.57;7.32;;;;;;;18.21;94.95;101115.97;5030243;28;20032;-72
2023/08/28 08:39:37;;;;;;;10.65;8.18;;;;;;;18.23;93.21;101124.06;5030180;28;20049;-72
2023/08/28 08:42:03;;;;;;;9.52;7.20;;;;;;;18.24;92.96;101123.94;5028829;28;20423;-72
2023/08/28 08:44:29;;;;;;;10.25;7.45;;;;;;;18.19;92.43;101129.03;5025957;28;20029;-72
2023/08/28 08:46:56;;;;;;;6.85;6.15;;;;;;;18.27;92.74;101131.88;5009644;28;20104;-72
2023/08/28 08:49:26;;;;;;;8.68;6.05;;;;;;;18.38;92.05;101132.69;5009561;28;20488;-72
2023/08/28 08:51:59;;;;;;;7.13;6.43;;;;;;;18.50;91.86;101139.69;5010160;28;20175;-72
2023/08/28 08:54:30;;;;;;;7.30;6.40;;;;;;;18.63;91.94;101136.56;5009916;28;20073;-72
2023/08/28 08:57:02;;;;;;;6.95;5.53;;;;;;;18.79;90.32;101139.50;5010031;28;20493;-72
2023/08/28 08:59:28;;;;;;;6.70;5.15;;;;;;;18.88;90.19;101137.69;5008213;28;20409;-72
2023/08/28 09:01:54;;;;;;;7.63;5.47;;;;;;;18.82;89.83;101130.94;5009316;28;20050;-71
2023/08/28 09:04:20;;;;;;;6.82;4.90;;;;;;;18.96;90.91;101129.50;5009549;28;20394;-72
2023/08/28 09:06:46;;;;;;;5.38;4.78;;;;;;;19.04;88.77;101130.47;5009871;28;20049;-71
2023/08/28 09:09:12;;;;;;;7.13;4.85;;;;;;;19.15;89.02;101134.84;5009600;28;20037;-72
2023/08/28 09:11:40;;;;;;;6.90;4.90;;;;;;;19.17;84.98;101132.81;5010035;28;20768;-71
2023/08/28 09:14:06;;;;;;;4.40;2.90;;;;;;;19.21;85.93;101133.34;5009081;28;20077;-72
2023/08/28 09:16:34;;;;;;;3.47;2.80;;;;;;;19.20;81.11;101129.72;5009241;28;20037;-72
2023/08/28 09:19:00;;;;;;;3.40;2.70;;;;;;;19.18;84.18;101122.63;5015151;28;20033;-72
2023/08/28 09:21:27;;;;;;;3.33;2.95;;;;;;;19.26;84.17;101125.47;5028055;28;20037;-72
2023/08/28 09:23:53;;;;;;;4.35;2.97;;;;;;;19.27;84.54;101117.03;5009644;28;20401;-72
2023/08/28 09:26:20;;;;;;;5.45;3.20;;;;;;;19.23;83.14;101123.03;5008742;28;20022;-72
2023/08/28 09:28:59;;;;;;;5.50;3.20;;;;;;;19.17;85.46;101118.16;5010782;28;20117;-71
2023/08/28 09:31:32;;;;;;;7.35;2.80;;;;;;;19.07;82.71;101120.97;5007449;28;20105;-71
2023/08/28 09:33:57;;;;;;;2.35;2.15;;;;;;;19.13;86.16;101120.38;5008496;28;20068;-72
2023/08/28 09:36:24;;;;;;;3.22;2.35;;;;;;;19.15;82.02;101117.44;5009335;28;20038;-71
2023/08/28 09:38:49;;;;;;;3.35;1.88;;;;;;;19.20;83.77;101117.81;5010022;28;20041;-71
2023/08/28 09:41:15;;;;;;;2.40;1.60;;;;;;;19.33;82.94;101121.03;5010297;28;20018;-72
2023/08/28 09:43:41;;;;;;;2.92;1.90;;;;;;;19.35;83.67;101122.59;5027608;28;20120;-71
2023/08/28 09:46:07;;;;;;;2.97;2.47;;;;;;;19.43;82.50;101134.72;5013959;28;20115;-71
2023/08/28 09:48:34;;;;;;;3.53;2.22;;;;;;;19.44;82.24;101128.16;5011249;28;20485;-71
2023/08/28 09:51:06;;;;;;;4.10;2.10;;;;;;;19.48;80.14;101124.91;5028581;28;20167;-71
2023/08/28 09:53:32;;;;;;;3.42;2.05;;;;;;;19.70;80.88;101130.97;5018455;28;20029;-71
2023/08/28 09:55:58;;;;;;;2.67;2.30;;;;;;;19.74;82.01;101135.13;5009222;28;20105;-71
2023/08/28 09:58:25;;;;;;;3.67;2.13;;;;;;;19.91;79.31;101139.72;5008748;28;20038;-71
2023/08/28 10:00:52;;;;;;;2.38;2.17;;;;;;;20.08;79.85;101130.47;5008791;28;20049;-71
2023/08/28 10:03:20;;;;;;;4.13;2.22;;;;;;;20.25;76.12;101136.06;5025902;28;20033;-71
2023/08/28 10:05:47;;;;;;;2.15;1.95;;;;;;;20.36;72.71;101125.56;5025786;28;20435;-71
2023/08/28 10:08:14;;;;;;;3.40;2.00;;;;;;;20.87;79.37;101133.81;5028682;28;20026;-71
2023/08/28 10:10:41;;;;;;;4.20;1.90;;;;;;;21.47;74.20;101121.56;5025780;28;20437;-71
2023/08/28 10:13:13;;;;;;;2.28;1.70;;;;;;;21.89;73.52;101121.28;5008693;28;20081;-71
2023/08/28 10:16:00;;;;;;;2.60;1.60;;;;;;;21.95;68.37;101123.31;5008413;28;20056;-72
2023/08/28 10:18:38;;;;;;;2.22;1.70;;;;;;;21.96;68.20;101113.97;5007459;28;20084;-72
2023/08/28 10:21:05;;;;;;;2.17;1.45;;;;;;;21.79;67.52;101118.72;5007043;28;20256;-71
2023/08/28 10:23:33;;;;;;;2.22;1.70;;;;;;;21.72;67.91;101122.38;5008537;28;20025;-72
2023/08/28 10:25:59;;;;;;;2.05;1.60;;;;;;;21.79;70.51;101120.63;5006727;28;20041;-72
2023/08/28 10:28:25;;;;;;;1.45;1.33;;;;;;;21.97;70.37;101121.25;5008142;28;20081;-71
2023/08/28 10:30:51;;;;;;;2.78;1.30;;;;;;;22.07;69.79;101123.81;5008487;28;20033;-72
2023/08/28 10:33:21;;;;;;;3.22;1.70;;;;;;;21.99;68.54;101121.94;5008980;28;20049;-71
2023/08/28 10:35:52;;;;;;;2.67;1.50;;;;;;;21.86;68.87;101122.47;5010740;28;20032;-71
2023/08/28 10:38:21;;;;;;;2.55;1.67;;;;;;;21.83;71.21;101122.00;5025621;28;20084;-71
2023/08/28 10:40:49;;;;;;;1.80;1.70;;;;;;;21.74;68.67;101125.84;5008778;28;20041;-71
2023/08/28 10:43:19;;;;;;;3.00;1.85;;;;;;;21.61;67.73;101124.47;5023210;28;20036;-71
2023/08/28 10:45:45;;;;;;;2.28;1.80;;;;;;;21.51;68.64;101128.47;5007727;28;20433;-71
2023/08/28 10:48:11;;;;;;;2.30;1.80;;;;;;;21.40;70.10;101124.16;5007262;28;20056;-71
2023/08/28 10:50:37;;;;;;;2.38;1.60;;;;;;;21.30;72.91;101126.22;5007795;28;20437;-71
2023/08/28 10:53:03;;;;;;;1.90;1.65;;;;;;;21.23;71.79;101125.19;5023170;28;20050;-71
2023/08/28 10:55:29;;;;;;;3.10;1.85;;;;;;;21.16;70.19;101125.00;5006814;28;20037;-70
2023/08/28 10:57:54;;;;;;;3.28;2.20;;;;;;;21.06;71.61;101132.63;5011522;28;20757;-71
2023/08/28 11:00:24;;;;;;;2.85;2.20;;;;;;;20.97;72.88;101119.81;5018490;28;20045;-71
2023/08/28 11:03:15;;;;;;;3.35;2.03;;;;;;;20.97;72.74;101114.28;5007944;28;20030;-71
2023/08/28 11:05:41;;;;;;;5.43;2.00;;;;;;;21.01;69.60;101116.53;5006571;28;20100;-71
2023/08/28 11:08:11;;;;;;;3.58;2.40;;;;;;;21.04;71.22;101118.09;5007952;28;20451;-71
2023/08/28 11:10:44;;;;;;;2.65;2.28;;;;;;;21.09;69.72;101115.69;5007921;28;20034;-71
2023/08/28 11:13:18;;;;;;;4.72;2.15;;;;;;;21.25;68.28;101114.78;5007659;28;20042;-70